createdAt,value
2018-06-02T00:00:44.380Z,101593.50
2018-06-02T00:03:11.152Z,101597.00
2018-06-02T00:05:37.964Z,101596.12
2018-06-02T00:08:04.851Z,101592.76
2018-06-02T00:10:32.422Z,101592.78
2018-06-02T00:13:00.032Z,101582.02
2018-06-02T00:15:26.848Z,101586.40
2018-06-02T00:17:53.632Z,101578.14
2018-06-02T00:20:20.498Z,101590.91
2018-06-02T00:22:48.169Z,101587.52
2018-06-02T00:25:15.680Z,101589.09
2018-06-02T00:27:42.461Z,101587.94
2018-06-02T00:30:09.288Z,101598.27
2018-06-02T00:32:36.120Z,101589.48
2018-06-02T00:35:03.052Z,101584.97
2018-06-02T00:37:29.824Z,101587.55
2018-06-02T00:39:56.604Z,101588.73
2018-06-02T00:42:23.420Z,101593.86
2018-06-02T00:44:50.239Z,101603.37
2018-06-02T00:47:17.062Z,101604.61
2018-06-02T00:49:43.851Z,101597.05
2018-06-02T00:52:11.374Z,101601.04
2018-06-02T00:54:56.492Z,101600.71
2018-06-02T00:57:23.324Z,101596.34
2018-06-02T00:59:50.140Z,101604.02
2018-06-02T01:02:16.908Z,101599.84
2018-06-02T01:04:43.678Z,101605.80
2018-06-02T01:07:11.244Z,101599.37
2018-06-02T01:09:38.084Z,101604.47
2018-06-02T01:12:05.703Z,101602.00
2018-06-02T01:14:32.514Z,101602.84
2018-06-02T01:16:59.383Z,101606.74
2018-06-02T01:19:26.163Z,101610.75
2018-06-02T01:21:53.040Z,101607.20
2018-06-02T01:24:19.859Z,101604.80
2018-06-02T01:26:47.372Z,101603.44
2018-06-02T01:29:14.201Z,101607.31
2018-06-02T01:31:40.976Z,101607.80
2018-06-02T01:34:07.825Z,101617.16
2018-06-02T01:36:34.747Z,101612.75
2018-06-02T01:39:01.547Z,101613.74
2018-06-02T01:41:28.324Z,101614.93
2018-06-02T01:43:55.136Z,101619.22
2018-06-02T01:46:22.014Z,101613.44
2018-06-02T01:48:48.796Z,101613.11
2018-06-02T01:51:16.316Z,101617.30
2018-06-02T01:53:43.164Z,101608.50
2018-06-02T01:56:09.944Z,101605.12
2018-06-02T01:58:37.567Z,101600.78
2018-06-02T02:01:04.426Z,101597.02
2018-06-02T02:03:31.216Z,101605.00
2018-06-02T02:05:58.004Z,101606.48
2018-06-02T02:08:25.153Z,101608.53
2018-06-02T02:10:53.018Z,101606.80
2018-06-02T02:13:19.818Z,101605.73
2018-06-02T02:15:46.746Z,101604.77
2018-06-02T02:18:13.576Z,101612.50
2018-06-02T02:20:40.363Z,101614.86
2018-06-02T02:23:08.007Z,101623.41
2018-06-02T02:25:35.559Z,101624.03
2018-06-02T02:28:03.105Z,101621.62
2018-06-02T02:30:29.931Z,101621.42
2018-06-02T02:32:56.734Z,101621.05
2018-06-02T02:35:23.567Z,101617.23
2018-06-02T02:37:50.758Z,101613.07
2018-06-02T02:40:17.527Z,101610.93
2018-06-02T02:42:44.290Z,101609.78
2018-06-02T02:45:17.173Z,101611.58
2018-06-02T02:47:44.000Z,101617.45
2018-06-02T02:50:10.775Z,101619.83
2018-06-02T02:52:37.596Z,101626.19
2018-06-02T02:55:05.531Z,101617.11
2018-06-02T02:57:32.331Z,101621.25
2018-06-02T02:59:59.180Z,101627.37
2018-06-02T03:02:25.997Z,101638.45
2018-06-02T03:04:53.512Z,101637.06
2018-06-02T03:07:20.468Z,101639.05
2018-06-02T03:09:47.260Z,101642.81
2018-06-02T03:12:14.104Z,101646.15
2018-06-02T03:14:41.684Z,101640.61
2018-06-02T03:17:08.499Z,101644.52
2018-06-02T03:19:36.005Z,101641.98
2018-06-02T03:22:02.841Z,101652.01
2018-06-02T03:24:30.421Z,101658.67
2018-06-02T03:26:57.189Z,101665.39
2018-06-02T03:29:24.010Z,101667.20
2018-06-02T03:31:51.552Z,101666.20
2018-06-02T03:34:18.376Z,101664.80
2018-06-02T03:36:45.224Z,101677.11
2018-06-02T03:39:12.040Z,101670.75
2018-06-02T03:41:39.544Z,101678.47
2018-06-02T03:44:06.300Z,101669.78
2018-06-02T03:46:33.119Z,101671.42
2018-06-02T03:48:59.932Z,101669.24
2018-06-02T03:51:27.449Z,101680.13
2018-06-02T03:53:54.498Z,101682.11
2018-06-02T03:56:21.276Z,101673.80
2018-06-02T03:58:48.784Z,101682.47
2018-06-02T04:01:15.653Z,101689.80
2018-06-02T04:03:42.412Z,101688.81
2018-06-02T04:06:09.180Z,101693.19
2018-06-02T04:08:36.743Z,101690.02
2018-06-02T04:11:03.561Z,101685.25
2018-06-02T04:13:31.286Z,101685.46
2018-06-02T04:15:58.449Z,101693.19
2018-06-02T04:18:25.236Z,101689.42
2018-06-02T04:20:52.767Z,101695.58
2018-06-02T04:23:19.595Z,101696.35
2018-06-02T04:25:46.416Z,101698.71
2018-06-02T04:28:13.240Z,101698.13
2018-06-02T04:30:40.012Z,101692.78
2018-06-02T04:33:06.792Z,101697.54
2018-06-02T04:35:33.621Z,101695.75
2018-06-02T04:38:00.455Z,101691.80
2018-06-02T04:40:27.376Z,101692.20
2018-06-02T04:42:54.156Z,101691.22
2018-06-02T04:45:26.912Z,101694.56
2018-06-02T04:47:53.740Z,101700.33
2018-06-02T04:50:21.396Z,101697.94
2018-06-02T04:52:48.156Z,101699.53
2018-06-02T04:55:14.938Z,101693.78
2018-06-02T04:57:42.063Z,101702.30
2018-06-02T05:00:08.847Z,101707.44
2018-06-02T05:02:35.775Z,101705.47
2018-06-02T05:05:03.724Z,101705.87
2018-06-02T05:07:30.516Z,101706.25
2018-06-02T05:09:58.048Z,101703.47
2018-06-02T05:12:24.876Z,101703.47
2018-06-02T05:14:51.776Z,101703.08
2018-06-02T05:17:18.587Z,101703.09
2018-06-02T05:19:45.364Z,101706.24
2018-06-02T05:22:12.594Z,101712.33
2018-06-02T05:24:40.100Z,101713.38
2018-06-02T05:27:07.688Z,101712.78
2018-06-02T05:29:34.527Z,101715.13
2018-06-02T05:32:01.328Z,101714.36
2018-06-02T05:34:28.096Z,101709.38
2018-06-02T05:36:54.924Z,101706.45
2018-06-02T05:39:21.747Z,101713.58
2018-06-02T05:41:48.582Z,101711.78
2018-06-02T05:44:15.405Z,101709.40
2018-06-02T05:46:42.196Z,101710.39
2018-06-02T05:49:09.015Z,101708.02
2018-06-02T05:51:35.844Z,101707.04
2018-06-02T05:54:02.612Z,101707.42
2018-06-02T05:56:29.688Z,101713.55
2018-06-02T05:58:56.464Z,101710.80
2018-06-02T06:01:23.242Z,101708.42
2018-06-02T06:03:50.289Z,101716.14
2018-06-02T06:06:17.116Z,101721.68
2018-06-02T06:08:43.908Z,101723.25
2018-06-02T06:11:10.727Z,101732.94
2018-06-02T06:13:37.515Z,101731.19
2018-06-02T06:16:04.495Z,101727.22
2018-06-02T06:18:32.047Z,101727.22
2018-06-02T06:20:58.836Z,101728.53
2018-06-02T06:23:25.696Z,101729.14
2018-06-02T06:25:52.488Z,101726.97
2018-06-02T06:28:19.313Z,101725.58
2018-06-02T06:30:46.132Z,101720.63
2018-06-02T06:33:12.999Z,101723.66
2018-06-02T06:35:39.707Z,101725.22
2018-06-02T06:38:06.796Z,101728.02
2018-06-02T06:40:33.615Z,101733.34
2018-06-02T06:43:00.379Z,101740.66
2018-06-02T06:45:27.232Z,101744.81
2018-06-02T06:47:54.746Z,101742.63
2018-06-02T06:50:21.527Z,101753.92
2018-06-02T06:52:48.631Z,101759.65
2018-06-02T06:55:15.530Z,101758.66
2018-06-02T06:57:43.154Z,101760.05
2018-06-02T07:00:09.962Z,101761.61
2018-06-02T07:02:36.799Z,101759.06
2018-06-02T07:05:03.676Z,101760.05
2018-06-02T07:07:30.451Z,101762.23
2018-06-02T07:09:57.270Z,101758.66
2018-06-02T07:12:24.039Z,101762.02
2018-06-02T07:14:50.807Z,101758.84
2018-06-02T07:17:17.743Z,101760.05
2018-06-02T07:19:45.267Z,101768.36
2018-06-02T07:22:12.280Z,101766.78
2018-06-02T07:24:39.107Z,101766.97
2018-06-02T07:27:09.439Z,101767.77
2018-06-02T07:29:36.328Z,101771.92
2018-06-02T07:32:03.474Z,101769.16
2018-06-02T07:34:30.248Z,101772.51
2018-06-02T07:36:57.021Z,101778.63
2018-06-02T07:39:23.823Z,101781.22
2018-06-02T07:41:50.695Z,101782.20
2018-06-02T07:44:18.278Z,101785.77
2018-06-02T07:46:45.072Z,101786.13
2018-06-02T07:49:11.928Z,101783.18
2018-06-02T07:51:38.758Z,101791.09
2018-06-02T07:54:05.626Z,101789.13
2018-06-02T07:56:33.177Z,101800.98
2018-06-02T07:59:01.013Z,101794.66
2018-06-02T08:01:27.778Z,101789.71
2018-06-02T08:03:54.559Z,101792.91
2018-06-02T08:06:21.424Z,101790.32
2018-06-02T08:08:48.228Z,101795.25
2018-06-02T08:11:15.787Z,101798.56
2018-06-02T08:13:43.301Z,101798.42
2018-06-02T08:16:10.139Z,101801.00
2018-06-02T08:18:38.051Z,101801.41
2018-06-02T08:21:04.859Z,101806.54
2018-06-02T08:23:31.643Z,101796.45
2018-06-02T08:25:59.325Z,101806.54
2018-06-02T08:28:26.836Z,101806.76
2018-06-02T08:30:53.724Z,101804.78
2018-06-02T08:33:21.290Z,101812.67
2018-06-02T08:35:48.065Z,101815.44
2018-06-02T08:38:15.578Z,101820.20
2018-06-02T08:40:43.273Z,101818.83
2018-06-02T08:43:10.089Z,101824.73
2018-06-02T08:45:37.599Z,101826.15
2018-06-02T08:48:04.581Z,101830.48
2018-06-02T08:50:31.351Z,101832.05
2018-06-02T08:52:58.121Z,101827.31
2018-06-02T08:55:25.711Z,101828.30
2018-06-02T08:57:52.592Z,101830.67
2018-06-02T09:00:20.124Z,101835.05
2018-06-02T09:02:47.096Z,101833.26
2018-06-02T09:05:14.614Z,101837.81
2018-06-02T09:07:42.182Z,101837.81
2018-06-02T09:10:09.010Z,101829.09
2018-06-02T09:12:35.781Z,101827.93
2018-06-02T09:15:02.576Z,101826.14
2018-06-02T09:17:29.388Z,101825.56
2018-06-02T09:19:56.222Z,101817.42
2018-06-02T09:22:23.935Z,101812.67
2018-06-02T09:24:50.752Z,101820.41
2018-06-02T09:27:17.535Z,101815.21
2018-06-02T09:29:44.303Z,101809.05
2018-06-02T09:32:11.224Z,101817.42
2018-06-02T09:34:37.988Z,101809.28
2018-06-02T09:37:04.787Z,101806.25
2018-06-02T09:39:31.604Z,101802.22
2018-06-02T09:41:58.612Z,101802.00
2018-06-02T09:44:25.459Z,101799.22
2018-06-02T09:46:52.291Z,101800.09
2018-06-02T09:49:19.080Z,101799.91
2018-06-02T09:51:45.896Z,101805.64
2018-06-02T09:54:12.723Z,101810.55
2018-06-02T09:56:39.590Z,101807.27
2018-06-02T09:59:06.375Z,101807.59
2018-06-02T10:01:40.197Z,101809.19
2018-06-02T10:04:07.209Z,101808.48
2018-06-02T10:06:34.735Z,101813.80
2018-06-02T10:09:01.644Z,101807.86
2018-06-02T10:11:28.443Z,101813.32
2018-06-02T10:13:55.976Z,101814.67
2018-06-02T10:16:22.823Z,101815.66
2018-06-02T10:18:49.625Z,101810.16
2018-06-02T10:21:16.557Z,101810.36
2018-06-02T10:23:43.549Z,101810.94
2018-06-02T10:26:10.335Z,101819.00
2018-06-02T10:28:37.861Z,101820.87
2018-06-02T10:31:04.734Z,101830.34
2018-06-02T10:33:31.656Z,101835.34
2018-06-02T10:35:58.445Z,101836.99
2018-06-02T10:38:25.289Z,101830.74
2018-06-02T10:40:52.076Z,101830.31
2018-06-02T10:43:18.855Z,101831.50
2018-06-02T10:45:45.760Z,101836.08
2018-06-02T10:48:12.547Z,101837.87
2018-06-02T10:50:40.072Z,101839.29
2018-06-02T10:53:06.927Z,101840.93
2018-06-02T10:55:33.711Z,101841.75
2018-06-02T10:58:00.548Z,101844.98
2018-06-02T11:00:27.385Z,101846.59
2018-06-02T11:02:54.155Z,101848.54
2018-06-02T11:05:20.987Z,101843.13
2018-06-02T11:07:47.813Z,101847.77
2018-06-02T11:10:14.760Z,101853.16
2018-06-02T11:12:42.296Z,101853.67
2018-06-02T11:15:09.117Z,101845.86
2018-06-02T11:17:35.944Z,101843.24
2018-06-02T11:20:02.797Z,101837.58
2018-06-02T11:22:30.456Z,101848.93
2018-06-02T11:24:57.284Z,101848.55
2018-06-02T11:27:24.061Z,101848.23
2018-06-02T11:29:50.842Z,101851.22
2018-06-02T11:32:18.408Z,101837.68
2018-06-02T11:34:45.244Z,101837.19
2018-06-02T11:37:12.763Z,101841.36
2018-06-02T11:39:39.575Z,101839.12
2018-06-02T11:42:06.348Z,101841.77
2018-06-02T11:44:33.153Z,101838.98
2018-06-02T11:47:00.162Z,101837.25
2018-06-02T11:49:26.944Z,101843.86
2018-06-02T11:51:53.743Z,101847.11
2018-06-02T11:54:20.566Z,101850.78
2018-06-02T11:56:47.358Z,101853.80
2018-06-02T11:59:14.187Z,101855.48
2018-06-02T12:01:41.751Z,101856.53
2018-06-02T12:04:09.279Z,101852.22
2018-06-02T12:06:36.068Z,101855.69
2018-06-02T12:09:03.008Z,101853.42
2018-06-02T12:11:29.848Z,101853.77
2018-06-02T12:13:57.402Z,101852.41
2018-06-02T12:16:24.226Z,101851.33
2018-06-02T12:18:50.998Z,101856.00
2018-06-02T12:21:17.776Z,101854.11
2018-06-02T12:23:45.556Z,101867.11
2018-06-02T12:26:12.364Z,101856.16
2018-06-02T12:28:39.304Z,101858.17
2018-06-02T12:31:06.176Z,101856.21
2018-06-02T12:33:32.957Z,101856.56
2018-06-02T12:35:59.843Z,101852.96
2018-06-02T12:38:26.781Z,101858.93
2018-06-02T12:40:53.557Z,101858.56
2018-06-02T12:43:20.344Z,101863.20
2018-06-02T12:45:47.221Z,101866.26
2018-06-02T12:48:15.551Z,101858.95
2018-06-02T12:50:42.341Z,101853.73
2018-06-02T12:53:09.168Z,101853.33
2018-06-02T12:55:36.684Z,101856.90
2018-06-02T12:58:03.472Z,101854.79
2018-06-02T13:00:30.645Z,101846.78
2018-06-02T13:02:57.625Z,101847.36
2018-06-02T13:05:24.412Z,101850.84
2018-06-02T13:07:51.980Z,101849.62
2018-06-02T13:10:18.776Z,101850.09
2018-06-02T13:12:46.568Z,101853.42
2018-06-02T13:15:13.380Z,101852.38
2018-06-02T13:17:40.207Z,101851.13
2018-06-02T13:20:06.987Z,101855.15
2018-06-02T13:22:33.884Z,101848.39
2018-06-02T13:25:00.720Z,101854.13
2018-06-02T13:27:27.496Z,101853.84
2018-06-02T13:29:54.323Z,101854.73
2018-06-02T13:32:21.121Z,101857.05
2018-06-02T13:34:48.646Z,101852.75
2018-06-02T13:37:15.841Z,101859.71
2018-06-02T13:39:43.662Z,101861.52
2018-06-02T13:42:10.527Z,101861.80
2018-06-02T13:44:37.327Z,101861.55
2018-06-02T13:47:04.155Z,101862.70
2018-06-02T13:49:30.983Z,101862.66
2018-06-02T13:51:57.892Z,101869.49
2018-06-02T13:54:24.670Z,101862.05
2018-06-02T13:56:52.214Z,101863.14
2018-06-02T13:59:19.066Z,101863.63
2018-06-02T14:01:45.887Z,101857.64
2018-06-02T14:04:12.718Z,101867.39
2018-06-02T14:06:39.495Z,101860.27
2018-06-02T14:09:06.292Z,101855.47
2018-06-02T14:11:33.107Z,101853.23
2018-06-02T14:13:59.986Z,101855.23
2018-06-02T14:16:26.759Z,101846.72
2018-06-02T14:18:53.724Z,101839.93
2018-06-02T14:21:21.239Z,101839.45
2018-06-02T14:23:48.025Z,101850.08
2018-06-02T14:26:14.969Z,101844.66
2018-06-02T14:28:42.497Z,101840.72
2018-06-02T14:31:09.276Z,101839.72
2018-06-02T14:33:36.997Z,101839.22
2018-06-02T14:36:03.818Z,101842.44
2018-06-02T14:38:30.652Z,101846.83
2018-06-02T14:40:57.486Z,101843.88
2018-06-02T14:43:24.255Z,101849.09
2018-06-02T14:45:51.080Z,101843.30
2018-06-02T14:48:17.864Z,101839.36
2018-06-02T14:50:44.683Z,101845.12
2018-06-02T14:53:11.655Z,101844.86
2018-06-02T14:55:38.440Z,101837.81
2018-06-02T14:58:05.231Z,101838.42
2018-06-02T15:00:32.067Z,101843.35
2018-06-02T15:02:58.903Z,101841.58
2018-06-02T15:05:25.677Z,101847.88
2018-06-02T15:07:52.518Z,101849.08
2018-06-02T15:10:19.308Z,101842.80
2018-06-02T15:12:46.088Z,101842.53
2018-06-02T15:15:13.048Z,101843.56
2018-06-02T15:17:39.865Z,101843.23
2018-06-02T15:20:07.388Z,101846.75
2018-06-02T15:22:34.896Z,101848.48
2018-06-02T15:25:01.738Z,101843.52
2018-06-02T15:27:28.583Z,101844.96
2018-06-02T15:29:55.400Z,101851.45
2018-06-02T15:32:22.171Z,101851.20
2018-06-02T15:34:48.984Z,101847.24
2018-06-02T15:37:15.788Z,101848.31
2018-06-02T15:39:42.616Z,101847.68
2018-06-02T15:42:09.390Z,101846.92
2018-06-02T15:44:36.959Z,101848.73
2018-06-02T15:47:03.811Z,101846.56
2018-06-02T15:49:30.617Z,101842.88
2018-06-02T15:51:57.492Z,101845.41
2018-06-02T15:54:24.255Z,101851.44
2018-06-02T15:56:51.031Z,101852.45
2018-06-02T15:59:17.850Z,101857.17
2018-06-02T16:01:44.636Z,101858.58
2018-06-02T16:04:11.458Z,101859.55
2018-06-02T16:06:38.275Z,101862.50
2018-06-02T16:09:05.107Z,101868.28
2018-06-02T16:11:31.884Z,101870.65
2018-06-02T16:13:58.717Z,101868.48
2018-06-02T16:16:25.652Z,101867.52
2018-06-02T16:18:52.437Z,101866.88
2018-06-02T16:21:19.258Z,101865.33
2018-06-02T16:23:46.039Z,101870.64
2018-06-02T16:26:12.816Z,101864.48
2018-06-02T16:28:39.668Z,101862.73
2018-06-02T16:31:06.439Z,101857.34
2018-06-02T16:33:33.212Z,101861.30
2018-06-02T16:36:00.778Z,101860.14
2018-06-02T16:38:28.288Z,101868.27
2018-06-02T16:40:55.863Z,101871.83
2018-06-02T16:43:22.684Z,101864.09
2018-06-02T16:45:49.462Z,101870.84
2018-06-02T16:48:16.236Z,101876.36
2018-06-02T16:50:43.050Z,101871.26
2018-06-02T16:53:09.876Z,101874.80
2018-06-02T16:55:36.676Z,101873.22
2018-06-02T16:58:03.676Z,101877.19
2018-06-02T17:00:30.452Z,101881.59
2018-06-02T17:02:57.962Z,101881.37
2018-06-02T17:05:25.578Z,101878.99
2018-06-02T17:07:52.364Z,101879.97
2018-06-02T17:10:19.134Z,101879.97
2018-06-02T17:12:46.017Z,101885.76
2018-06-02T17:15:12.791Z,101881.60
2018-06-02T17:17:39.748Z,101888.90
2018-06-02T17:20:06.852Z,101885.53
2018-06-02T17:22:33.635Z,101880.41
2018-06-02T17:25:00.411Z,101886.70
2018-06-02T17:27:27.372Z,101883.94
2018-06-02T17:29:54.194Z,101885.56
2018-06-02T17:32:20.966Z,101888.92
2018-06-02T17:34:47.860Z,101880.36
2018-06-02T17:37:14.658Z,101889.08
2018-06-02T17:39:41.427Z,101886.70
2018-06-02T17:42:09.192Z,101893.63
2018-06-02T17:44:36.028Z,101888.89
2018-06-02T17:47:02.807Z,101886.12
2018-06-02T17:49:29.620Z,101892.02
2018-06-02T17:51:56.387Z,101896.58
2018-06-02T17:54:23.214Z,101888.27
2018-06-02T17:56:50.270Z,101893.41
2018-06-02T17:59:17.819Z,101897.34
2018-06-02T18:01:44.612Z,101899.32
2018-06-02T18:04:12.171Z,101892.52
2018-06-02T18:06:38.995Z,101893.35
2018-06-02T18:09:05.825Z,101885.03
2018-06-02T18:11:32.651Z,101895.70
2018-06-02T18:13:59.413Z,101891.32
2018-06-02T18:16:26.188Z,101898.14
2018-06-02T18:18:53.206Z,101896.39
2018-06-02T18:21:19.964Z,101896.85
2018-06-02T18:23:46.728Z,101901.30
2018-06-02T18:26:14.280Z,101905.78
2018-06-02T18:28:41.803Z,101910.77
2018-06-02T18:31:08.627Z,101908.06
2018-06-02T18:33:35.446Z,101904.87
2018-06-02T18:36:02.219Z,101909.30
2018-06-02T18:38:29.024Z,101909.89
2018-06-02T18:40:56.586Z,101899.45
2018-06-02T18:43:23.467Z,101907.73
2018-06-02T18:45:50.241Z,101905.70
2018-06-02T18:48:17.006Z,101907.23
2018-06-02T18:50:44.563Z,101907.10
2018-06-02T18:53:12.058Z,101904.52
2018-06-02T18:55:38.873Z,101907.45
2018-06-02T18:58:06.430Z,101911.67
2018-06-02T19:00:33.929Z,101909.64
2018-06-02T19:03:00.704Z,101904.11
2018-06-02T19:05:27.514Z,101902.00
2018-06-02T19:07:54.329Z,101906.95
2018-06-02T19:10:21.847Z,101904.95
2018-06-02T19:12:48.660Z,101912.25
2018-06-02T19:15:15.494Z,101916.41
2018-06-02T19:17:42.247Z,101912.56
2018-06-02T19:20:09.908Z,101915.34
2018-06-02T19:22:36.732Z,101919.89
2018-06-02T19:25:04.247Z,101922.23
2018-06-02T19:27:31.058Z,101928.16
2018-06-02T19:29:57.825Z,101928.52
2018-06-02T19:32:24.656Z,101926.34
2018-06-02T19:34:51.471Z,101930.98
2018-06-02T19:37:18.243Z,101930.73
2018-06-02T19:39:45.008Z,101938.73
2018-06-02T19:42:11.826Z,101932.86
2018-06-02T19:44:39.381Z,101937.64
2018-06-02T19:47:06.160Z,101937.75
2018-06-02T19:49:32.988Z,101946.08
2018-06-02T19:51:59.759Z,101945.04
2018-06-02T19:54:27.271Z,101950.36
2018-06-02T19:56:54.883Z,101946.64
2018-06-02T19:59:21.672Z,101949.80
2018-06-02T20:01:48.446Z,101955.29
2018-06-02T20:04:15.270Z,101951.73
2018-06-02T20:06:42.028Z,101950.02
2018-06-02T20:09:08.844Z,101952.52
2018-06-02T20:11:35.668Z,101960.62
2018-06-02T20:14:02.488Z,101955.44
2018-06-02T20:16:29.996Z,101953.66
2018-06-02T20:18:56.859Z,101948.95
2018-06-02T20:21:23.670Z,101948.95
2018-06-02T20:23:50.432Z,101947.17
2018-06-02T20:26:17.243Z,101951.46
2018-06-02T20:28:44.007Z,101950.70
2018-06-02T20:31:10.780Z,101952.03
2018-06-02T20:33:39.229Z,101946.89
2018-06-02T20:36:06.749Z,101945.86
2018-06-02T20:38:33.522Z,101941.08
2018-06-02T20:41:00.492Z,101941.05
2018-06-02T20:43:27.275Z,101935.59
2018-06-02T20:45:54.102Z,101940.30
2018-06-02T20:48:20.928Z,101942.78
2018-06-02T20:50:47.731Z,101940.16
2018-06-02T20:53:14.558Z,101934.78
2018-06-02T20:55:41.332Z,101933.61
2018-06-02T20:58:08.896Z,101930.20
2018-06-02T21:00:35.665Z,101934.83
2018-06-02T21:03:02.638Z,101937.41
2018-06-02T21:05:30.172Z,101938.41
2018-06-02T21:07:56.952Z,101936.03
2018-06-02T21:10:24.767Z,101939.10
2018-06-02T21:12:51.543Z,101950.09
2018-06-02T21:15:19.047Z,101944.83
2018-06-02T21:17:45.860Z,101950.84
2018-06-02T21:20:13.395Z,101950.55
2018-06-02T21:22:40.288Z,101955.28
2018-06-02T21:25:07.924Z,101959.09
2018-06-02T21:27:34.736Z,101950.28
2018-06-02T21:30:01.512Z,101958.85
2018-06-02T21:32:29.086Z,101950.78
2018-06-02T21:34:55.902Z,101957.94
2018-06-02T21:37:22.667Z,101955.05
2018-06-02T21:39:49.511Z,101961.12
2018-06-02T21:42:17.056Z,101964.67
2018-06-02T21:44:44.557Z,101959.55
2018-06-02T21:47:12.172Z,101967.28
2018-06-02T21:49:39.687Z,101969.07
2018-06-02T21:52:06.463Z,101968.27
2018-06-02T21:54:33.271Z,101967.52
2018-06-02T21:57:00.047Z,101966.58
2018-06-02T21:59:26.887Z,101964.13
2018-06-02T22:01:53.737Z,101972.81
2018-06-02T22:04:20.503Z,101969.81
2018-06-02T22:06:48.018Z,101968.63
2018-06-02T22:09:14.839Z,101973.41
2018-06-02T22:11:41.671Z,101971.18
2018-06-02T22:14:08.440Z,101967.70
2018-06-02T22:16:35.254Z,101968.80
2018-06-02T22:19:02.060Z,101967.78
2018-06-02T22:21:28.839Z,101968.87
2018-06-02T22:23:55.714Z,101974.84
2018-06-02T22:26:22.492Z,101969.83
2018-06-02T22:28:50.014Z,101972.29
2018-06-02T22:31:16.828Z,101972.50
2018-06-02T22:33:43.589Z,101965.27
2018-06-02T22:36:10.439Z,101965.17
2018-06-02T22:38:37.287Z,101962.95
2018-06-02T22:41:04.093Z,101964.27
2018-06-02T22:43:31.631Z,101964.08
2018-06-02T22:45:59.183Z,101960.00
2018-06-02T22:48:26.022Z,101963.17
2018-06-02T22:50:52.832Z,101962.86
2018-06-02T22:53:19.734Z,101957.86
2018-06-02T22:55:47.311Z,101965.19
2018-06-02T22:58:14.159Z,101965.24
2018-06-02T23:00:41.154Z,101965.70
2018-06-02T23:03:07.927Z,101971.28
2018-06-02T23:05:35.518Z,101962.88
2018-06-02T23:08:02.561Z,101963.44
2018-06-02T23:10:29.362Z,101956.01
2018-06-02T23:12:56.225Z,101961.06
2018-06-02T23:15:23.783Z,101963.94
2018-06-02T23:17:51.287Z,101965.69
2018-06-02T23:20:18.053Z,101968.34
2018-06-02T23:22:44.867Z,101967.46
2018-06-02T23:25:11.706Z,101970.56
2018-06-02T23:27:38.476Z,101960.95
2018-06-02T23:30:05.331Z,101959.70
2018-06-02T23:32:32.111Z,101966.80
2018-06-02T23:34:59.711Z,101964.07
2018-06-02T23:37:26.572Z,101959.24
2018-06-02T23:39:53.366Z,101964.71
2018-06-02T23:42:20.152Z,101962.88
2018-06-02T23:44:46.980Z,101967.19
2018-06-02T23:47:13.764Z,101962.57
2018-06-02T23:49:40.604Z,101959.72
2018-06-02T23:52:07.550Z,101966.47
2018-06-02T23:54:34.361Z,101966.94
2018-06-02T23:57:01.167Z,101968.69
2018-06-02T23:59:27.991Z,101976.51
